Time;durP1;ratioP1;P1;durP2;ratioP2;P2;SDS_P1;SDS_P2;PMS_P1;PMS_P2;Temp;Humidity;BMP_temperature;BMP_pressure;BME280_temperature;BME280_humidity;BME280_pressure;Samples;Min_cycle;Max_cycle;Signal;HPM_P1;HPM_P2
2023/06/29 00:01:07;;;;;;;21.67;11.65;;;;;;;18.12;80.71;101740.50;7381830;19;19942;-72
2023/06/29 00:03:36;;;;;;;24.42;12.20;;;;;;;18.12;80.61;101737.78;7379970;19;19927;-72
2023/06/29 00:06:07;;;;;;;22.38;12.40;;;;;;;18.12;81.34;101740.50;7379423;19;19926;-72
2023/06/29 00:08:36;;;;;;;23.25;12.02;;;;;;;18.14;81.28;101729.41;7380896;19;19933;-73
2023/06/29 00:11:07;;;;;;;21.35;12.13;;;;;;;18.14;81.00;101743.88;7382354;19;20259;-72
2023/06/29 00:13:36;;;;;;;22.92;11.88;;;;;;;18.16;80.75;101734.66;7383285;19;19926;-73
2023/06/29 00:16:05;;;;;;;22.75;13.02;;;;;;;18.16;81.12;101738.22;7378009;19;19929;-73
2023/06/29 00:18:35;;;;;;;20.80;11.80;;;;;;;18.14;81.31;101732.97;7382825;19;19926;-73
2023/06/29 00:21:04;;;;;;;22.67;12.18;;;;;;;18.16;80.93;101732.78;7379349;19;19923;-72
2023/06/29 00:23:36;;;;;;;24.30;13.23;;;;;;;18.17;81.18;101736.31;7378897;19;19939;-73
2023/06/29 00:26:05;;;;;;;;;;;;;;;17.96;82.05;101727.25;7382486;19;20018;-72
2023/06/29 00:28:33;;;;;;;26.90;14.32;;;;;;;18.11;81.04;101721.63;7378812;19;19945;-72
2023/06/29 00:31:02;;;;;;;21.90;13.10;;;;;;;18.12;81.12;101724.13;7378723;19;19930;-72
2023/06/29 00:33:31;;;;;;;25.85;12.82;;;;;;;18.11;81.41;101721.63;7378332;19;20287;-73
2023/06/29 00:36:00;;;;;;;22.48;13.05;;;;;;;18.13;81.26;101724.97;7376815;19;19918;-73
2023/06/29 00:38:29;;;;;;;23.27;14.60;;;;;;;18.12;80.97;101712.41;7378741;19;19970;-72
2023/06/29 00:41:01;;;;;;;21.70;12.63;;;;;;;18.13;80.85;101725.81;7380684;19;19934;-72
2023/06/29 00:43:29;;;;;;;25.85;13.88;;;;;;;18.13;81.37;101720.38;7374474;19;19921;-72
2023/06/29 00:45:58;;;;;;;22.25;13.68;;;;;;;18.13;81.13;101720.38;7378468;19;20553;-73
2023/06/29 00:48:27;;;;;;;23.85;13.30;;;;;;;18.14;81.41;101713.88;7378185;19;20402;-72
2023/06/29 00:50:56;;;;;;;23.77;12.68;;;;;;;18.16;81.28;101713.69;7377977;19;19914;-73
2023/06/29 00:53:25;;;;;;;26.92;14.88;;;;;;;18.16;80.98;101708.22;7378641;19;19919;-73
2023/06/29 00:55:54;;;;;;;22.83;12.65;;;;;;;18.16;81.27;101708.22;7381124;19;19923;-73
2023/06/29 00:58:25;;;;;;;21.80;13.02;;;;;;;18.18;81.17;101702.53;7379295;19;19985;-73
2023/06/29 01:00:55;;;;;;;24.67;13.10;;;;;;;18.17;81.70;101703.59;7378901;19;21536;-73
2023/06/29 01:03:24;;;;;;;23.33;13.40;;;;;;;18.16;81.51;101699.19;7376800;19;19925;-72
2023/06/29 01:05:57;;;;;;;26.85;13.07;;;;;;;18.14;81.08;101702.97;7380499;19;20259;-72
2023/06/29 01:08:33;;;;;;;21.80;13.57;;;;;;;18.12;81.69;101696.06;7377138;19;20269;-72
2023/06/29 01:11:04;;;;;;;20.98;12.57;;;;;;;18.13;81.19;101682.19;7380180;19;19922;-73
2023/06/29 01:13:38;;;;;;;23.20;13.15;;;;;;;18.13;81.28;101692.25;7380556;19;19962;-72
2023/06/29 01:16:09;;;;;;;24.58;13.52;;;;;;;18.12;81.19;101680.50;7380213;19;19948;-72
2023/06/29 01:18:39;;;;;;;23.98;13.15;;;;;;;18.11;81.73;101678.84;7387651;19;20344;-72
2023/06/29 01:21:08;;;;;;;21.42;12.32;;;;;;;18.11;81.79;101678.00;7386286;19;19958;-72
2023/06/29 01:23:39;;;;;;;20.58;12.95;;;;;;;18.12;81.76;101685.97;7385297;19;19923;-75
2023/06/29 01:26:12;;;;;;;24.60;12.98;;;;;;;18.10;81.33;101682.63;7385922;19;19926;-75
2023/06/29 01:28:40;;;;;;;27.50;14.52;;;;;;;18.10;81.54;101676.31;7384904;19;19934;-75
2023/06/29 01:31:09;;;;;;;22.52;12.48;;;;;;;18.11;81.37;101675.28;7385905;19;19944;-75
2023/06/29 01:33:38;;;;;;;27.23;14.82;;;;;;;18.10;81.18;101679.03;7386805;19;19926;-75
2023/06/29 01:36:15;;;;;;;27.45;14.07;;;;;;;18.08;81.79;101673.78;7384156;19;19926;-74
2023/06/29 01:38:48;;;;;;;25.13;13.65;;;;;;;18.08;81.81;101662.88;7386651;19;19918;-75
2023/06/29 01:41:21;;;;;;;23.17;13.63;;;;;;;18.09;81.76;101663.72;7385097;19;19922;-75
2023/06/29 01:43:51;;;;;;;25.02;13.85;;;;;;;18.08;81.57;101662.88;7382418;19;19993;-75
2023/06/29 01:46:21;;;;;;;31.75;12.93;;;;;;;18.08;81.92;101657.41;7378250;19;20015;-75
2023/06/29 01:48:51;;;;;;;24.25;13.95;;;;;;;18.06;81.36;101659.53;7383973;19;22154;-74
2023/06/29 01:51:20;;;;;;;27.85;13.60;;;;;;;18.07;81.86;101655.78;7379100;19;19993;-75
2023/06/29 01:53:50;;;;;;;25.95;13.98;;;;;;;18.06;81.89;101658.69;7381707;19;19990;-74
2023/06/29 01:56:22;;;;;;;27.33;14.15;;;;;;;18.05;81.77;101657.84;7381785;19;19982;-74
2023/06/29 01:58:51;;;;;;;31.48;14.13;;;;;;;18.04;81.38;101656.16;7386460;19;19976;-75
2023/06/29 02:01:19;;;;;;;28.70;15.20;;;;;;;18.02;81.81;101655.53;7383070;19;19933;-74
2023/06/29 02:03:48;;;;;;;24.55;13.73;;;;;;;18.03;81.77;101654.47;7381980;19;19944;-72
2023/06/29 02:06:17;;;;;;;23.75;12.90;;;;;;;18.02;81.49;101652.81;7382914;19;19932;-72
2023/06/29 02:08:46;;;;;;;27.10;13.82;;;;;;;18.02;81.69;101655.53;7385617;19;20294;-72
2023/06/29 02:11:14;;;;;;;23.63;14.38;;;;;;;18.01;81.76;101653.84;7383468;19;20400;-72
2023/06/29 02:13:46;;;;;;;24.05;13.77;;;;;;;18.02;81.98;101649.25;7387703;19;19925;-72
2023/06/29 02:16:14;;;;;;;24.38;14.10;;;;;;;18.00;81.82;101646.72;7383100;19;19938;-72
2023/06/29 02:18:43;;;;;;;32.70;14.73;;;;;;;17.98;81.69;101646.09;7385677;19;19922;-73
2023/06/29 02:21:12;;;;;;;25.60;13.50;;;;;;;17.96;81.99;101640.00;7382794;19;20328;-75
2023/06/29 02:23:40;;;;;;;23.35;13.60;;;;;;;17.94;81.94;101644.84;7382359;19;19926;-72
2023/06/29 02:26:09;;;;;;;26.25;14.43;;;;;;;17.94;81.75;101639.38;7382829;19;19953;-72
2023/06/29 02:28:38;;;;;;;23.58;14.02;;;;;;;17.94;82.00;101638.53;7382146;19;19921;-72
2023/06/29 02:31:09;;;;;;;26.77;14.50;;;;;;;17.94;81.82;101636.66;7383520;19;19974;-72
2023/06/29 02:33:38;;;;;;;26.77;14.77;;;;;;;17.95;82.16;101634.75;7384645;19;19919;-73
2023/06/29 02:36:07;;;;;;;27.90;14.35;;;;;;;17.94;82.06;101633.94;7381085;19;19915;-72
2023/06/29 02:38:36;;;;;;;25.42;14.13;;;;;;;17.94;81.76;101627.63;7382252;19;19946;-72
2023/06/29 02:41:05;;;;;;;22.50;14.50;;;;;;;17.91;81.93;101634.31;7383421;19;19922;-72
2023/06/29 02:43:34;;;;;;;28.10;14.88;;;;;;;17.91;81.62;101626.13;7382420;19;20829;-73
2023/06/29 02:46:03;;;;;;;21.73;14.40;;;;;;;17.88;82.13;101629.28;7382804;19;19922;-72
2023/06/29 02:48:34;;;;;;;23.17;13.60;;;;;;;17.87;82.10;101619.41;7379876;19;20629;-74
2023/06/29 02:51:03;;;;;;;25.10;14.32;;;;;;;17.85;82.30;101612.50;7381542;19;19925;-73
2023/06/29 02:53:31;;;;;;;25.73;14.50;;;;;;;17.85;81.99;101618.81;7383130;19;19921;-74
2023/06/29 02:56:00;;;;;;;26.83;14.55;;;;;;;17.82;81.91;101613.75;7383632;19;19922;-74
2023/06/29 02:58:29;;;;;;;28.92;14.57;;;;;;;17.84;82.28;101621.72;7381036;19;20352;-74
2023/06/29 03:00:57;;;;;;;26.00;14.10;;;;;;;17.81;82.32;101614.81;7381012;19;19923;-75
2023/06/29 03:03:26;;;;;;;22.25;14.40;;;;;;;17.80;82.47;101618.59;7378646;19;19982;-73
2023/06/29 03:05:57;;;;;;;27.17;13.38;;;;;;;17.80;82.65;101615.84;7378323;19;19925;-72
2023/06/29 03:08:26;;;;;;;24.52;13.05;;;;;;;17.79;82.72;101611.44;7384191;19;22164;-74
2023/06/29 03:10:55;;;;;;;32.22;14.38;;;;;;;17.80;82.10;101618.59;7378099;19;20559;-74
2023/06/29 03:13:23;;;;;;;26.17;14.82;;;;;;;17.80;82.48;101620.47;7381053;19;19911;-73
2023/06/29 03:15:56;;;;;;;22.25;13.55;;;;;;;17.79;82.39;101610.59;7380643;19;19924;-73
2023/06/29 03:18:25;;;;;;;24.63;13.70;;;;;;;17.78;82.99;101615.22;7381404;19;19923;-73
2023/06/29 03:20:53;;;;;;;26.88;13.68;;;;;;;17.78;82.50;101614.38;7378162;19;20345;-73
2023/06/29 03:23:25;;;;;;;26.23;13.50;;;;;;;17.78;82.75;101606.19;7378067;19;19914;-73
2023/06/29 03:25:54;;;;;;;22.05;13.85;;;;;;;17.78;82.58;101606.19;7381254;19;19943;-73
2023/06/29 03:28:22;;;;;;;23.83;13.18;;;;;;;17.78;82.47;101607.03;7379006;19;19919;-73
2023/06/29 03:30:51;;;;;;;26.02;14.15;;;;;;;17.80;82.61;101609.56;7381335;19;19923;-73
2023/06/29 03:33:20;;;;;;;22.23;13.23;;;;;;;17.81;82.28;101606.63;7380028;19;19982;-73
2023/06/29 03:35:48;;;;;;;19.88;13.65;;;;;;;17.82;82.54;101596.59;7380543;19;20303;-73
2023/06/29 03:38:17;;;;;;;26.30;14.13;;;;;;;17.85;82.42;101607.06;7377057;19;22765;-72
2023/06/29 03:40:49;;;;;;;21.75;13.60;;;;;;;17.85;82.14;101607.06;7380570;19;19933;-72
2023/06/29 03:43:18;;;;;;;24.02;12.30;;;;;;;17.84;81.79;101606.22;7377108;19;19929;-73
2023/06/29 03:45:47;;;;;;;22.65;12.50;;;;;;;17.88;81.80;101609.38;7378384;19;19918;-73
2023/06/29 03:48:16;;;;;;;22.98;12.38;;;;;;;17.87;81.93;101605.78;7378758;19;20360;-72
2023/06/29 03:50:45;;;;;;;21.75;12.93;;;;;;;17.89;81.99;101594.69;7380678;19;20243;-72
2023/06/29 03:53:14;;;;;;;25.33;12.77;;;;;;;17.90;82.12;101604.56;7380828;19;19922;-73
2023/06/29 03:55:43;;;;;;;20.35;11.80;;;;;;;17.90;81.61;101597.22;7382629;19;20379;-73
2023/06/29 03:58:14;;;;;;;25.23;13.20;;;;;;;17.89;81.47;101592.81;7380787;19;20496;-73
2023/06/29 04:00:44;;;;;;;24.08;13.80;;;;;;;17.90;81.72;101599.94;7381393;19;19919;-73
2023/06/29 04:03:13;;;;;;;24.88;12.93;;;;;;;17.92;81.55;101602.44;7380715;19;19975;-73
2023/06/29 04:05:41;;;;;;;22.40;13.18;;;;;;;17.90;81.83;101605.41;7382424;19;19922;-73
2023/06/29 04:08:10;;;;;;;20.60;12.43;;;;;;;17.91;81.47;101598.88;7383220;19;19986;-72
2023/06/29 04:10:39;;;;;;;20.88;12.13;;;;;;;17.94;81.85;101589.47;7383212;19;19923;-73
2023/06/29 04:13:07;;;;;;;21.73;12.38;;;;;;;17.96;81.69;101588.19;7381900;19;20360;-72
2023/06/29 04:15:39;;;;;;;23.33;13.00;;;;;;;17.99;81.52;101597.88;7382615;19;19914;-72
2023/06/29 04:18:07;;;;;;;25.50;13.35;;;;;;;18.01;81.78;101596.59;7379828;19;20251;-72
2023/06/29 04:20:38;;;;;;;24.70;12.55;;;;;;;18.02;81.24;101595.56;7382863;19;19926;-74
2023/06/29 04:23:07;;;;;;;23.73;12.23;;;;;;;18.03;81.67;101590.94;7379992;19;19935;-72
2023/06/29 04:25:36;;;;;;;18.77;12.00;;;;;;;18.06;81.21;101594.09;7381737;19;20275;-72
2023/06/29 04:28:04;;;;;;;22.65;12.60;;;;;;;18.08;81.07;101597.44;7380215;19;19922;-73
2023/06/29 04:30:36;;;;;;;26.73;12.70;;;;;;;18.11;81.24;101597.03;7380433;19;19947;-72
2023/06/29 04:33:09;;;;;;;20.05;13.02;;;;;;;18.14;80.88;101587.59;7385229;19;19926;-75
2023/06/29 04:35:38;;;;;;;20.65;12.23;;;;;;;18.19;80.75;101595.13;7383449;19;19926;-74
2023/06/29 04:38:09;;;;;;;20.77;12.48;;;;;;;18.22;80.79;101586.53;7384419;19;19926;-74
2023/06/29 04:40:38;;;;;;;27.70;12.57;;;;;;;18.25;80.63;101584.22;7384138;19;19922;-72
2023/06/29 04:43:07;;;;;;;27.35;13.75;;;;;;;18.28;81.06;101580.25;7380677;19;19926;-72
2023/06/29 04:45:36;;;;;;;25.23;13.43;;;;;;;18.31;80.83;101577.09;7381745;19;19921;-73
2023/06/29 04:48:09;;;;;;;25.95;12.38;;;;;;;18.34;80.67;101580.22;7377865;19;19922;-75
2023/06/29 04:50:38;;;;;;;26.00;12.77;;;;;;;18.39;80.65;101571.41;7380338;19;20553;-72
2023/06/29 04:53:09;;;;;;;22.65;12.82;;;;;;;18.41;80.72;101569.31;7385462;19;19939;-74
2023/06/29 04:55:38;;;;;;;22.80;12.93;;;;;;;18.41;80.60;101572.91;7389793;19;19978;-74
2023/06/29 04:58:07;;;;;;;21.55;12.75;;;;;;;18.43;80.30;101572.66;7388474;19;19922;-72
2023/06/29 05:00:36;;;;;;;24.90;13.48;;;;;;;18.44;80.42;101556.09;7385047;19;19982;-74
2023/06/29 05:03:08;;;;;;;21.58;13.68;;;;;;;18.47;80.36;101555.66;7389442;19;19946;-72
2023/06/29 05:05:36;;;;;;;18.73;12.43;;;;;;;18.50;80.38;101565.34;7389677;19;20360;-74
2023/06/29 05:08:06;;;;;;;22.52;13.60;;;;;;;18.51;80.27;101569.72;7388518;19;19918;-74
2023/06/29 05:10:34;;;;;;;21.77;13.52;;;;;;;18.53;80.58;101564.94;7385851;19;19929;-73
2023/06/29 05:13:04;;;;;;;23.70;13.07;;;;;;;18.53;79.99;101560.31;7389710;19;19926;-72
2023/06/29 05:15:33;;;;;;;26.45;14.32;;;;;;;18.56;80.50;101561.78;7390442;19;19961;-74
2023/06/29 05:18:02;;;;;;;21.98;14.00;;;;;;;18.58;80.40;101559.69;7391225;19;19930;-74
2023/06/29 05:20:34;;;;;;;25.17;13.45;;;;;;;18.59;80.02;101554.00;7388181;19;19922;-74
2023/06/29 05:23:02;;;;;;;27.75;14.27;;;;;;;18.61;80.13;101558.41;7388791;19;19930;-72
2023/06/29 05:25:31;;;;;;;27.10;15.48;;;;;;;18.62;80.11;101560.94;7386669;19;19919;-74
2023/06/29 05:28:00;;;;;;;21.85;13.27;;;;;;;18.66;79.98;101566.78;7389887;19;19918;-74
2023/06/29 05:30:29;;;;;;;28.20;14.15;;;;;;;18.69;80.29;101561.75;7385861;19;19931;-74
2023/06/29 05:32:57;;;;;;;29.60;15.07;;;;;;;18.74;79.51;101559.22;7385039;19;19923;-74
2023/06/29 05:35:26;;;;;;;26.88;14.68;;;;;;;18.80;79.75;101563.00;7390246;19;19936;-74
2023/06/29 05:37:58;;;;;;;26.58;14.27;;;;;;;18.86;79.27;101562.97;7388995;19;19961;-72
2023/06/29 05:40:26;;;;;;;23.83;13.82;;;;;;;18.92;78.96;101556.66;7389835;19;20296;-72
2023/06/29 05:42:55;;;;;;;23.42;14.50;;;;;;;18.97;79.07;101565.03;7387969;19;19922;-72
2023/06/29 05:45:24;;;;;;;22.95;13.57;;;;;;;19.05;78.83;101563.97;7388761;19;19926;-72
2023/06/29 05:47:54;;;;;;;30.75;15.07;;;;;;;19.10;78.82;101560.56;7388216;19;19927;-72
2023/06/29 05:50:23;;;;;;;25.20;14.48;;;;;;;19.15;78.82;101552.59;7391220;19;20510;-73
2023/06/29 05:52:52;;;;;;;27.13;15.57;;;;;;;19.19;78.21;101549.19;7387962;19;19975;-73
2023/06/29 05:55:24;;;;;;;23.27;13.77;;;;;;;19.26;78.17;101557.34;7390602;19;19926;-74
2023/06/29 05:57:52;;;;;;;27.10;13.75;;;;;;;19.32;78.30;101551.88;7386122;19;19929;-73
2023/06/29 06:00:22;;;;;;;29.65;15.10;;;;;;;19.40;77.99;101540.69;7384499;19;19990;-73
2023/06/29 06:02:50;;;;;;;26.25;13.73;;;;;;;19.44;77.88;101544.69;7385255;19;20640;-74
2023/06/29 06:05:19;;;;;;;26.25;14.88;;;;;;;19.51;77.85;101550.09;7385192;19;19929;-74
2023/06/29 06:07:48;;;;;;;28.08;14.77;;;;;;;19.55;77.17;101540.41;7382441;19;19917;-73
2023/06/29 06:10:17;;;;;;;27.35;14.05;;;;;;;19.63;77.34;101545.59;7383279;19;20349;-73
2023/06/29 06:12:48;;;;;;;26.88;13.05;;;;;;;19.70;76.63;101542.84;7385846;19;20273;-78
2023/06/29 06:15:17;;;;;;;25.17;13.65;;;;;;;19.75;76.81;101543.88;7390548;19;19933;-75
2023/06/29 06:17:46;;;;;;;24.80;14.63;;;;;;;19.78;76.21;101532.47;7390738;19;19978;-76
2023/06/29 06:20:15;;;;;;;23.65;13.27;;;;;;;19.84;76.45;101538.97;7393992;19;19932;-72
2023/06/29 06:22:44;;;;;;;25.92;14.15;;;;;;;19.88;76.32;101540.19;7385110;19;19994;-73
2023/06/29 06:25:14;;;;;;;30.83;14.38;;;;;;;19.93;76.06;101534.91;7377727;19;20552;-72
2023/06/29 06:27:44;;;;;;;26.83;13.93;;;;;;;19.97;75.79;101538.88;7380200;19;19922;-73
2023/06/29 06:30:16;;;;;;;26.13;13.98;;;;;;;20.00;75.95;101534.84;7386327;19;21241;-72
2023/06/29 06:32:44;;;;;;;26.67;14.20;;;;;;;20.02;75.88;101539.00;7386408;19;19945;-72
2023/06/29 06:35:13;;;;;;;25.30;14.05;;;;;;;20.10;75.69;101526.97;7378852;19;19919;-72
2023/06/29 06:37:42;;;;;;;27.50;14.80;;;;;;;20.15;75.39;101530.69;7385797;19;19918;-72
2023/06/29 06:40:11;;;;;;;28.90;14.70;;;;;;;20.21;75.13;101539.91;7382217;19;21178;-72
2023/06/29 06:42:41;;;;;;;27.45;15.43;;;;;;;20.31;74.91;101537.53;7379284;19;19950;-71
2023/06/29 06:45:13;;;;;;;24.88;14.30;;;;;;;20.39;74.97;101526.31;7384011;19;20023;-72
2023/06/29 06:47:44;;;;;;;22.42;15.20;;;;;;;20.49;74.32;101536.75;7381151;19;19929;-72
2023/06/29 06:50:14;;;;;;;23.77;14.48;;;;;;;20.56;74.49;101534.75;7381222;19;19915;-72
2023/06/29 06:52:43;;;;;;;26.33;15.52;;;;;;;20.59;74.23;101526.94;7383661;19;19978;-74
2023/06/29 06:55:12;;;;;;;24.38;14.43;;;;;;;20.66;74.57;101526.88;7384438;19;19914;-74
2023/06/29 06:57:40;;;;;;;26.98;15.32;;;;;;;20.72;74.52;101536.91;7379824;19;19974;-74
2023/06/29 07:00:12;;;;;;;24.50;14.23;;;;;;;20.75;73.93;101526.31;7386883;19;19918;-74
2023/06/29 07:02:44;;;;;;;25.38;14.73;;;;;;;20.73;73.83;101524.88;7384401;19;19927;-74
2023/06/29 07:05:13;;;;;;;28.45;14.73;;;;;;;20.74;74.22;101535.63;7381839;19;20431;-74
2023/06/29 07:07:41;;;;;;;29.40;15.80;;;;;;;20.73;73.99;101533.09;7383391;19;19918;-74
2023/06/29 07:10:12;;;;;;;29.92;15.60;;;;;;;20.70;73.57;101536.31;7380773;19;20252;-74
2023/06/29 07:12:41;;;;;;;28.73;15.18;;;;;;;20.71;73.37;101529.78;7379890;19;20368;-74
2023/06/29 07:15:11;;;;;;;29.02;14.52;;;;;;;20.72;73.32;101523.22;7380706;19;20022;-74
2023/06/29 07:17:39;;;;;;;26.05;15.32;;;;;;;20.70;73.54;101526.19;7382070;19;19915;-74
2023/06/29 07:20:13;;;;;;;24.75;13.15;;;;;;;20.71;72.79;101530.59;7385567;19;19982;-73
2023/06/29 07:22:42;;;;;;;25.75;14.07;;;;;;;20.71;73.20;101522.38;7384296;19;19922;-74
2023/06/29 07:25:11;;;;;;;26.08;15.50;;;;;;;20.71;73.52;101522.38;7376070;19;20241;-73
2023/06/29 07:27:42;;;;;;;27.48;14.48;;;;;;;20.70;73.47;101517.97;7383234;19;19926;-73
2023/06/29 07:30:11;;;;;;;27.17;15.90;;;;;;;20.66;73.79;101522.25;7381922;19;19933;-72
2023/06/29 07:32:40;;;;;;;28.17;15.02;;;;;;;20.67;73.31;101526.63;7379815;19;19990;-72
2023/06/29 07:35:12;;;;;;;28.55;15.10;;;;;;;20.63;73.38;101517.19;7382677;19;20005;-71
2023/06/29 07:37:40;;;;;;;;;;;;;;;20.45;74.45;101521.84;7381706;19;19931;-72
2023/06/29 07:40:10;;;;;;;25.13;13.95;;;;;;;20.55;74.27;101516.66;7385173;19;19986;-72
2023/06/29 07:42:40;;;;;;;25.60;14.65;;;;;;;20.53;74.50;101508.69;7379551;19;19918;-72
2023/06/29 07:45:10;;;;;;;28.23;14.93;;;;;;;20.52;74.62;101512.50;7378508;19;19925;-71
2023/06/29 07:47:38;;;;;;;23.63;14.43;;;;;;;20.44;74.83;101509.22;7381643;19;19989;-71
2023/06/29 07:50:11;;;;;;;26.42;14.88;;;;;;;20.39;74.69;101509.88;7384630;19;20602;-73
2023/06/29 07:52:41;;;;;;;26.02;14.25;;;;;;;20.32;75.23;101504.47;7381597;19;19939;-73
2023/06/29 07:55:10;;;;;;;28.60;15.00;;;;;;;20.30;75.46;101503.03;7383620;19;19930;-73
2023/06/29 07:57:39;;;;;;;28.73;14.93;;;;;;;20.29;75.20;101510.41;7384878;19;19922;-73
2023/06/29 08:00:10;;;;;;;26.25;14.80;;;;;;;20.28;75.47;101505.94;7380740;19;19978;-72
2023/06/29 08:02:40;;;;;;;26.90;14.75;;;;;;;20.26;75.58;101505.34;7380910;19;20367;-72
2023/06/29 08:05:11;;;;;;;26.35;15.02;;;;;;;20.26;75.92;101505.34;7379851;19;19987;-72
2023/06/29 08:07:41;;;;;;;29.83;15.32;;;;;;;20.25;75.67;101503.66;7380213;19;20687;-72
2023/06/29 08:10:10;;;;;;;28.33;15.32;;;;;;;20.28;75.66;101508.69;7382825;19;19926;-72
2023/06/29 08:12:39;;;;;;;22.65;13.23;;;;;;;20.30;75.52;101500.28;7382759;19;19919;-73
2023/06/29 08:15:09;;;;;;;25.67;15.50;;;;;;;20.35;75.66;101503.19;7381472;19;20356;-72
2023/06/29 08:17:38;;;;;;;32.90;15.50;;;;;;;20.36;75.42;101499.41;7381390;19;19948;-73
2023/06/29 08:20:11;;;;;;;28.95;15.18;;;;;;;20.34;75.56;101494.13;7386547;19;19936;-73
2023/06/29 08:22:43;;;;;;;26.67;15.70;;;;;;;20.35;75.30;101492.25;7381267;19;19922;-73
2023/06/29 08:25:12;;;;;;;23.33;13.93;;;;;;;20.35;75.23;101489.50;7383419;19;19926;-72
2023/06/29 08:27:41;;;;;;;26.67;15.63;;;;;;;20.40;75.19;101489.66;7376060;19;19922;-72
2023/06/29 08:30:12;;;;;;;26.13;14.32;;;;;;;20.47;75.49;101487.69;7378997;19;19926;-72
2023/06/29 08:32:42;;;;;;;28.02;15.20;;;;;;;20.54;74.88;101482.13;7372804;19;19986;-72
2023/06/29 08:35:11;;;;;;;25.52;14.65;;;;;;;20.66;75.08;101478.44;7379196;19;19986;-73
2023/06/29 08:37:43;;;;;;;23.58;14.38;;;;;;;20.81;74.50;101483.50;7379130;19;19926;-73
2023/06/29 08:40:14;;;;;;;27.15;14.55;;;;;;;20.96;74.12;101474.91;7372212;19;19966;-72
2023/06/29 08:42:43;;;;;;;26.98;15.63;;;;;;;21.15;74.56;101465.59;7378202;19;20442;-73
2023/06/29 08:45:12;;;;;;;26.75;15.00;;;;;;;21.32;73.55;101463.88;7376419;19;19926;-73
2023/06/29 08:47:41;;;;;;;27.90;16.30;;;;;;;21.43;73.36;101467.72;7376817;19;19946;-73
2023/06/29 08:50:12;;;;;;;29.88;16.40;;;;;;;21.56;72.53;101471.09;7382705;19;19922;-73
2023/06/29 08:52:46;;;;;;;29.80;16.77;;;;;;;21.62;71.75;101466.56;7377147;19;19914;-73
2023/06/29 08:55:15;;;;;;;26.75;16.23;;;;;;;21.66;71.43;101468.59;7381134;19;20952;-72
2023/06/29 08:57:43;;;;;;;33.40;17.25;;;;;;;21.65;71.50;101471.59;7382102;19;19923;-73
2023/06/29 09:00:15;;;;;;;30.23;17.60;;;;;;;21.64;72.00;101468.03;7379403;19;20582;-73
2023/06/29 09:02:45;;;;;;;33.13;17.42;;;;;;;21.62;71.80;101461.09;7368641;19;20276;-73
2023/06/29 09:05:16;;;;;;;26.48;15.98;;;;;;;21.60;71.27;101463.25;7374974;19;20051;-73
2023/06/29 09:07:47;;;;;;;30.02;17.00;;;;;;;21.54;70.91;101466.91;7373886;19;19922;-73
2023/06/29 09:10:16;;;;;;;30.42;17.35;;;;;;;21.50;71.58;101471.19;7380188;19;20356;-73
2023/06/29 09:12:45;;;;;;;28.90;16.45;;;;;;;21.46;71.89;101468.09;7379962;19;19929;-73
2023/06/29 09:15:14;;;;;;;34.42;18.52;;;;;;;21.42;72.83;101461.41;7378424;19;19998;-73
2023/06/29 09:17:46;;;;;;;29.95;17.95;;;;;;;21.42;72.63;101461.41;7376135;19;20034;-73
2023/06/29 09:20:18;;;;;;;33.15;18.30;;;;;;;21.44;73.09;101459.28;7380096;19;19992;-73
2023/06/29 09:22:54;;;;;;;31.98;19.45;;;;;;;21.41;73.72;101454.25;7375538;19;19925;-73
2023/06/29 09:25:22;;;;;;;31.80;17.90;;;;;;;21.46;73.64;101457.13;7381142;19;19922;-72
2023/06/29 09:28:03;;;;;;;36.45;18.95;;;;;;;21.48;72.65;101451.41;7379233;19;20232;-72
2023/06/29 09:30:37;;;;;;;36.80;20.48;;;;;;;21.54;72.53;101459.53;7375732;19;19946;-73
2023/06/29 09:33:10;;;;;;;36.80;19.90;;;;;;;21.64;74.16;101457.06;7375916;19;20332;-72
2023/06/29 09:35:41;;;;;;;41.50;19.70;;;;;;;21.75;73.02;101449.91;7382358;19;19926;-72
2023/06/29 09:38:12;;;;;;;33.53;19.88;;;;;;;21.85;72.65;101444.66;7380040;19;19960;-73
2023/06/29 09:40:52;;;;;;;31.65;18.85;;;;;;;21.90;72.17;101452.19;7386706;19;19926;-72
2023/06/29 09:43:22;;;;;;;41.33;20.10;;;;;;;21.99;72.08;101445.31;7384274;19;19923;-72
2023/06/29 09:45:51;;;;;;;35.38;20.60;;;;;;;22.01;71.34;101443.16;7386374;19;19927;-74
2023/06/29 09:48:23;;;;;;;30.85;18.48;;;;;;;22.06;70.72;101444.13;7384486;19;19990;-74
2023/06/29 09:50:53;;;;;;;38.10;19.75;;;;;;;22.16;70.72;101438.88;7385592;19;19927;-72
2023/06/29 09:53:33;;;;;;;35.10;18.75;;;;;;;22.23;70.40;101446.13;7382040;19;19963;-73
2023/06/29 09:56:03;;;;;;;29.58;18.52;;;;;;;22.27;70.35;101441.81;7379915;19;19919;-73
2023/06/29 09:58:33;;;;;;;34.38;19.60;;;;;;;22.29;69.73;101437.78;7382557;19;20339;-78
2023/06/29 10:01:03;;;;;;;31.80;18.08;;;;;;;22.29;70.92;101437.78;7385394;19;19981;-76
2023/06/29 10:03:33;;;;;;;36.60;19.17;;;;;;;22.24;70.51;101440.41;7388000;19;19923;-76
2023/06/29 10:06:06;;;;;;;33.10;19.05;;;;;;;22.18;70.50;101433.13;7385012;19;19922;-75
2023/06/29 10:08:39;;;;;;;34.67;19.27;;;;;;;22.11;70.16;101432.41;7386499;19;19922;-73
2023/06/29 10:11:08;;;;;;;32.42;18.17;;;;;;;22.05;70.48;101427.88;7383566;19;20518;-74
2023/06/29 10:13:41;;;;;;;34.20;18.73;;;;;;;22.01;70.21;101427.53;7385146;19;19917;-72
2023/06/29 10:16:13;;;;;;;31.73;18.58;;;;;;;21.98;70.46;101433.50;7385197;19;19922;-74
2023/06/29 10:18:46;;;;;;;32.05;18.23;;;;;;;21.97;70.09;101425.50;7390044;19;19954;-73
2023/06/29 10:21:16;;;;;;;34.10;18.50;;;;;;;22.08;70.11;101419.19;7383543;19;19978;-74
2023/06/29 10:23:48;;;;;;;30.85;18.15;;;;;;;22.22;69.56;101417.84;7385321;19;19926;-74
2023/06/29 10:26:18;;;;;;;30.10;17.85;;;;;;;22.43;69.50;101419.97;7384140;19;19994;-75
2023/06/29 10:28:47;;;;;;;36.75;17.58;;;;;;;22.61;68.84;101414.31;7385163;19;19943;-74
2023/06/29 10:31:20;;;;;;;36.35;18.27;;;;;;;22.71;67.83;101415.63;7380601;19;19966;-74
2023/06/29 10:33:50;;;;;;;30.52;17.38;;;;;;;22.67;67.12;101411.66;7385111;19;20383;-74
2023/06/29 10:36:19;;;;;;;33.55;19.48;;;;;;;22.65;67.85;101413.84;7381827;19;19959;-75
2023/06/29 10:38:51;;;;;;;31.63;15.85;;;;;;;22.61;67.02;101417.03;7402364;19;19918;-74
2023/06/29 10:41:28;;;;;;;28.83;16.10;;;;;;;22.55;66.02;101411.72;7381782;19;20307;-74
2023/06/29 10:43:58;;;;;;;32.13;17.02;;;;;;;22.51;66.68;101411.38;7385263;19;19922;-74
2023/06/29 10:46:48;;;;;;;30.02;17.35;;;;;;;22.46;66.28;101419.50;7382301;19;20391;-73
2023/06/29 10:49:24;;;;;;;30.45;16.95;;;;;;;22.50;65.90;101412.44;7380254;19;19917;-73
2023/06/29 10:51:53;;;;;;;31.02;17.05;;;;;;;22.53;67.15;101408.34;7381610;19;19926;-74
2023/06/29 10:54:29;;;;;;;27.52;16.95;;;;;;;22.50;66.79;101404.19;7383679;19;19929;-73
2023/06/29 10:57:02;;;;;;;27.50;16.38;;;;;;;22.47;66.50;101404.69;7382395;19;19942;-73
2023/06/29 10:59:34;;;;;;;28.92;15.82;;;;;;;22.42;67.45;101401.84;7383724;19;20360;-73
2023/06/29 11:02:03;;;;;;;26.95;16.15;;;;;;;22.38;67.75;101403.41;7383352;19;20005;-74
2023/06/29 11:04:32;;;;;;;28.73;16.65;;;;;;;22.32;68.04;101401.59;7383515;19;19914;-73
2023/06/29 11:07:07;;;;;;;28.50;16.63;;;;;;;22.21;69.37;101399.72;7380870;19;20364;-74
2023/06/29 11:09:39;;;;;;;30.80;17.42;;;;;;;22.20;68.43;101403.53;7383502;19;19929;-74
2023/06/29 11:12:08;;;;;;;29.10;16.60;;;;;;;22.15;69.07;101403.41;7383532;19;19918;-74
2023/06/29 11:14:42;;;;;;;26.92;16.63;;;;;;;22.08;68.90;101408.22;7383142;19;20317;-73
2023/06/29 11:17:14;;;;;;;27.63;15.60;;;;;;;22.02;69.57;101411.91;7382346;19;19918;-74
2023/06/29 11:19:48;;;;;;;29.13;17.13;;;;;;;21.88;69.16;101411.25;7388353;19;20401;-73
2023/06/29 11:22:17;;;;;;;26.38;16.17;;;;;;;21.82;69.88;101408.66;7382342;19;20296;-73